createdAt,value
2022-08-30T00:02:26.674Z,20.87
2022-08-30T00:05:01.627Z,20.94
2022-08-30T00:07:33.835Z,20.90
2022-08-30T00:10:07.824Z,20.91
2022-08-30T00:12:40.379Z,20.88
2022-08-30T00:15:14.358Z,20.82
2022-08-30T00:17:47.291Z,20.74
2022-08-30T00:20:22.097Z,20.78
2022-08-30T00:22:54.480Z,20.75
2022-08-30T00:25:27.888Z,20.72
2022-08-30T00:28:00.262Z,20.75
2022-08-30T00:30:32.638Z,20.73
2022-08-30T00:33:04.746Z,20.68
2022-08-30T00:35:38.755Z,20.68
2022-08-30T00:38:12.439Z,20.67
2022-08-30T00:40:46.868Z,20.64
2022-08-30T00:43:24.852Z,20.60
2022-08-30T00:46:04.371Z,20.58
2022-08-30T00:48:41.765Z,20.58
2022-08-30T00:51:16.198Z,20.60
2022-08-30T00:53:54.845Z,20.64
2022-08-30T00:56:28.767Z,20.61
2022-08-30T00:59:03.240Z,20.56
2022-08-30T01:01:37.655Z,20.56
2022-08-30T01:04:10.114Z,20.49
2022-08-30T01:06:42.666Z,20.47
2022-08-30T01:09:15.721Z,20.48
2022-08-30T01:11:49.545Z,20.45
2022-08-30T01:14:25.799Z,20.42
2022-08-30T01:17:01.562Z,20.44
2022-08-30T01:19:42.254Z,20.43
2022-08-30T01:22:24.961Z,20.40
2022-08-30T01:25:00.287Z,20.43
2022-08-30T01:27:33.417Z,20.47
2022-08-30T01:30:08.779Z,20.44
2022-08-30T01:32:45.361Z,20.43
2022-08-30T01:35:20.780Z,20.46
2022-08-30T01:37:54.140Z,20.45
2022-08-30T01:40:27.046Z,20.45
2022-08-30T01:42:59.491Z,20.42
2022-08-30T01:45:31.540Z,20.42
2022-08-30T01:48:05.562Z,20.39
2022-08-30T01:50:39.206Z,20.44
2022-08-30T01:53:13.423Z,20.47
2022-08-30T01:55:45.969Z,20.45
2022-08-30T01:58:18.224Z,20.46
2022-08-30T02:00:50.265Z,20.47
2022-08-30T02:03:22.886Z,20.44
2022-08-30T02:05:55.435Z,20.43
2022-08-30T02:08:27.626Z,20.38
2022-08-30T02:11:01.822Z,20.36
2022-08-30T02:13:33.908Z,20.34
2022-08-30T02:16:07.836Z,20.35
2022-08-30T02:18:41.440Z,20.28
2022-08-30T02:21:14.867Z,20.30
2022-08-30T02:23:47.923Z,20.20
2022-08-30T02:26:20.724Z,20.31
2022-08-30T02:28:54.300Z,20.32
2022-08-30T02:31:27.547Z,20.34
2022-08-30T02:33:59.751Z,20.33
2022-08-30T02:36:32.060Z,20.33
2022-08-30T02:39:04.280Z,20.24
2022-08-30T02:41:36.520Z,20.35
2022-08-30T02:44:10.816Z,20.39
2022-08-30T02:46:42.938Z,20.37
2022-08-30T02:52:09.109Z,20.42
2022-08-30T02:54:41.589Z,20.44
2022-08-30T02:57:20.086Z,20.44
2022-08-30T02:59:53.552Z,20.43
2022-08-30T03:02:26.039Z,20.42
2022-08-30T03:04:58.827Z,20.45
2022-08-30T03:07:31.558Z,20.46
2022-08-30T03:10:03.779Z,20.49
2022-08-30T03:12:36.781Z,20.49
2022-08-30T03:15:13.581Z,20.50
2022-08-30T03:17:45.799Z,20.49
2022-08-30T03:20:17.939Z,20.39
2022-08-30T03:22:50.219Z,20.48
2022-08-30T03:25:23.895Z,20.47
2022-08-30T03:27:56.124Z,20.52
2022-08-30T03:30:28.527Z,20.49
2022-08-30T03:33:01.031Z,20.48
2022-08-30T03:35:33.766Z,20.51
2022-08-30T03:38:05.926Z,20.50
2022-08-30T03:40:38.245Z,20.50
2022-08-30T03:43:10.769Z,20.48
2022-08-30T03:45:43.846Z,20.47
2022-08-30T03:48:16.142Z,20.47
2022-08-30T03:50:48.240Z,20.46
2022-08-30T03:53:20.569Z,20.48
2022-08-30T03:55:53.074Z,20.45
2022-08-30T03:58:26.140Z,20.47
2022-08-30T04:00:58.792Z,20.46
2022-08-30T04:03:31.740Z,20.47
2022-08-30T04:06:04.513Z,20.48
2022-08-30T04:08:37.424Z,20.48
2022-08-30T04:11:10.579Z,20.50
2022-08-30T04:13:43.276Z,20.51
2022-08-30T04:16:15.662Z,20.49
2022-08-30T04:18:48.032Z,20.49
2022-08-30T04:21:20.884Z,20.50
2022-08-30T04:23:57.679Z,20.49
2022-08-30T04:26:30.854Z,20.39
2022-08-30T04:29:02.991Z,20.43
2022-08-30T04:31:35.292Z,20.47
2022-08-30T04:34:08.282Z,20.42
2022-08-30T04:36:40.941Z,20.41
2022-08-30T04:39:15.200Z,20.40
2022-08-30T04:41:48.506Z,20.49
2022-08-30T04:44:21.859Z,20.47
2022-08-30T04:46:54.355Z,20.47
2022-08-30T04:49:26.528Z,20.49
2022-08-30T04:51:58.877Z,20.50
2022-08-30T04:54:31.064Z,20.50
2022-08-30T04:57:03.855Z,20.44
2022-08-30T04:59:36.042Z,20.49
2022-08-30T05:02:11.143Z,20.50
2022-08-30T05:04:59.801Z,20.52
2022-08-30T05:07:33.222Z,20.54
2022-08-30T05:10:10.957Z,20.48
2022-08-30T05:12:44.201Z,20.46
2022-08-30T05:15:16.614Z,20.37
2022-08-30T05:17:48.800Z,20.47
2022-08-30T05:20:21.341Z,20.48
2022-08-30T05:22:54.208Z,20.48
2022-08-30T05:25:29.823Z,20.47
2022-08-30T05:28:02.875Z,20.45
2022-08-30T05:30:37.501Z,20.47
2022-08-30T05:33:10.028Z,20.47
2022-08-30T05:35:42.233Z,20.45
2022-08-30T05:38:14.421Z,20.53
2022-08-30T05:40:46.960Z,20.53
2022-08-30T05:43:19.427Z,20.51
2022-08-30T05:45:59.021Z,20.58
2022-08-30T05:48:31.467Z,20.77
2022-08-30T05:51:11.541Z,20.89
2022-08-30T05:53:44.440Z,20.91
2022-08-30T05:56:19.278Z,21.04
2022-08-30T05:58:52.401Z,21.10
2022-08-30T06:01:28.055Z,21.22
2022-08-30T06:04:04.069Z,21.22
2022-08-30T06:06:38.731Z,21.23
2022-08-30T06:09:13.399Z,21.21
2022-08-30T06:11:46.619Z,21.21
2022-08-30T06:14:18.831Z,21.21
2022-08-30T06:16:52.106Z,21.21
2022-08-30T06:19:24.625Z,21.23
2022-08-30T06:21:56.810Z,21.25
2022-08-30T06:24:53.700Z,21.26
2022-08-30T06:27:21.344Z,21.25
2022-08-30T06:29:55.442Z,21.28
2022-08-30T06:32:27.680Z,21.29
2022-08-30T06:34:59.937Z,21.26
2022-08-30T06:37:33.105Z,21.26
2022-08-30T06:40:06.687Z,21.25
2022-08-30T06:42:38.893Z,21.27
2022-08-30T06:45:12.011Z,21.29
2022-08-30T06:47:44.896Z,21.31
2022-08-30T06:50:18.929Z,21.25
2022-08-30T06:52:51.360Z,21.20
2022-08-30T06:55:23.878Z,21.20
2022-08-30T06:57:56.296Z,21.23
2022-08-30T07:00:29.521Z,21.24
2022-08-30T07:03:02.814Z,21.25
2022-08-30T07:05:35.544Z,21.24
2022-08-30T07:08:08.023Z,21.25
2022-08-30T07:10:42.343Z,21.27
2022-08-30T07:13:14.607Z,21.25
2022-08-30T07:15:47.908Z,21.28
2022-08-30T07:18:40.213Z,21.34
2022-08-30T07:21:15.249Z,21.33
2022-08-30T07:23:53.244Z,21.44
2022-08-30T07:26:28.783Z,21.55
2022-08-30T07:29:02.578Z,21.61
2022-08-30T07:31:36.792Z,21.65
2022-08-30T07:34:10.633Z,21.64
2022-08-30T07:36:42.818Z,21.65
2022-08-30T07:39:14.940Z,21.77
2022-08-30T07:41:47.315Z,21.87
2022-08-30T07:44:19.970Z,21.88
2022-08-30T07:46:56.121Z,21.98
2022-08-30T07:49:28.565Z,22.03
2022-08-30T07:52:00.916Z,22.04
2022-08-30T07:54:33.471Z,22.20
2022-08-30T07:57:05.661Z,22.25
2022-08-30T07:59:37.771Z,22.33
2022-08-30T08:02:10.692Z,22.31
2022-08-30T08:04:42.744Z,22.25
2022-08-30T08:07:15.325Z,22.21
2022-08-30T08:09:47.710Z,22.20
2022-08-30T08:12:19.947Z,22.24
2022-08-30T08:14:52.282Z,22.26
2022-08-30T08:17:24.638Z,22.26
2022-08-30T08:19:57.464Z,22.26
2022-08-30T08:22:29.697Z,22.29
2022-08-30T08:25:02.254Z,22.28
2022-08-30T08:27:34.556Z,22.27
2022-08-30T08:30:07.760Z,22.33
2022-08-30T08:32:40.524Z,22.33
2022-08-30T08:35:14.376Z,22.34
2022-08-30T08:37:47.285Z,22.36
2022-08-30T08:40:22.024Z,22.39
2022-08-30T08:43:06.355Z,22.40
2022-08-30T08:45:51.449Z,22.43
2022-08-30T08:48:51.896Z,22.43
2022-08-30T08:51:49.361Z,22.45
2022-08-30T08:54:27.259Z,22.41
2022-08-30T08:56:59.965Z,22.42
2022-08-30T08:59:32.622Z,22.44
2022-08-30T09:02:19.788Z,22.43
2022-08-30T09:04:55.935Z,22.40
2022-08-30T09:07:31.848Z,22.42
2022-08-30T09:10:04.562Z,22.45
2022-08-30T09:12:36.931Z,22.28
2022-08-30T09:15:18.077Z,22.43
2022-08-30T09:17:57.870Z,22.44
2022-08-30T09:20:34.199Z,22.47
2022-08-30T09:23:27.734Z,22.52
2022-08-30T09:26:02.387Z,22.56
2022-08-30T09:28:44.682Z,22.50
2022-08-30T09:31:24.480Z,22.54
2022-08-30T09:34:04.049Z,22.58
2022-08-30T09:36:43.876Z,22.61
2022-08-30T09:39:21.136Z,22.63
2022-08-30T09:42:13.170Z,22.69
2022-08-30T09:44:45.613Z,22.73
2022-08-30T09:47:29.046Z,22.74
2022-08-30T09:50:10.377Z,22.75
2022-08-30T09:52:55.322Z,22.77
2022-08-30T09:55:54.741Z,22.82
2022-08-30T09:58:40.608Z,22.93
2022-08-30T10:01:16.262Z,22.98
2022-08-30T10:03:57.849Z,22.91
2022-08-30T10:06:35.511Z,22.91
2022-08-30T10:09:19.771Z,23.00
2022-08-30T10:11:59.850Z,23.07
2022-08-30T10:15:03.510Z,23.13
2022-08-30T10:17:48.910Z,23.22
2022-08-30T10:20:30.005Z,23.30
2022-08-30T10:23:09.425Z,23.33
2022-08-30T10:25:48.339Z,23.34
2022-08-30T10:28:30.888Z,23.31
2022-08-30T10:31:08.998Z,23.39
2022-08-30T10:33:46.406Z,23.41
2022-08-30T10:36:22.040Z,23.42
2022-08-30T10:38:58.436Z,23.47
2022-08-30T10:41:39.087Z,23.49
2022-08-30T10:44:20.651Z,23.47
2022-08-30T10:47:03.853Z,23.50
2022-08-30T10:49:40.642Z,23.46
2022-08-30T10:52:26.769Z,23.43
2022-08-30T10:55:04.811Z,23.51
2022-08-30T10:57:38.604Z,23.56
2022-08-30T11:00:24.764Z,23.60
2022-08-30T11:03:20.935Z,23.60
2022-08-30T11:06:16.405Z,23.72
2022-08-30T11:09:12.320Z,23.78
2022-08-30T11:11:59.816Z,23.88
2022-08-30T11:14:32.472Z,24.08
2022-08-30T11:17:05.250Z,24.05
2022-08-30T11:19:42.102Z,24.08
2022-08-30T11:22:18.204Z,24.16
2022-08-30T11:25:16.148Z,24.13
2022-08-30T11:27:53.786Z,24.15
2022-08-30T11:30:51.201Z,24.12
2022-08-30T11:33:42.592Z,23.97
2022-08-30T11:36:47.699Z,24.00
2022-08-30T11:42:38.855Z,23.88
2022-08-30T11:45:46.053Z,23.78
2022-08-30T11:48:53.749Z,23.68
2022-08-30T11:52:08.414Z,23.61
2022-08-30T11:55:02.400Z,23.54
2022-08-30T11:57:44.157Z,23.50
2022-08-30T12:00:34.242Z,23.33
2022-08-30T12:03:09.510Z,23.32
2022-08-30T12:05:57.525Z,23.33
2022-08-30T12:08:58.029Z,23.33
2022-08-30T12:12:08.310Z,23.29
2022-08-30T12:14:57.623Z,23.31
2022-08-30T12:18:15.242Z,23.28
2022-08-30T12:20:50.408Z,23.27
2022-08-30T12:23:31.286Z,23.24
2022-08-30T12:26:33.572Z,23.27
2022-08-30T12:29:19.046Z,23.22
2022-08-30T12:31:56.183Z,23.23
2022-08-30T12:34:33.450Z,23.23
2022-08-30T12:37:10.786Z,23.25
2022-08-30T12:39:44.918Z,23.26
2022-08-30T12:42:22.428Z,23.24
2022-08-30T12:44:58.037Z,23.18
2022-08-30T12:47:38.482Z,23.25
2022-08-30T12:50:15.435Z,23.23
2022-08-30T12:52:59.787Z,23.23
2022-08-30T12:55:34.885Z,23.23
2022-08-30T12:58:09.512Z,23.23
2022-08-30T13:00:45.152Z,23.25
2022-08-30T13:03:34.664Z,23.30
2022-08-30T13:06:08.991Z,23.32
2022-08-30T13:08:53.296Z,23.34
2022-08-30T13:11:29.390Z,23.31
2022-08-30T13:14:28.577Z,23.28
2022-08-30T13:17:11.165Z,23.31
2022-08-30T13:19:44.810Z,23.33
2022-08-30T13:22:31.666Z,23.37
2022-08-30T13:25:06.139Z,23.38
2022-08-30T13:27:40.775Z,23.40
2022-08-30T13:30:16.179Z,23.41
2022-08-30T13:32:48.474Z,23.40
2022-08-30T13:35:20.727Z,23.41
2022-08-30T13:37:53.170Z,23.44
2022-08-30T13:40:25.746Z,23.43
2022-08-30T13:42:58.646Z,23.50
2022-08-30T13:45:46.475Z,23.50
2022-08-30T13:48:24.791Z,23.51
2022-08-30T13:50:57.872Z,23.53
2022-08-30T13:56:24.344Z,23.45
2022-08-30T13:58:57.281Z,23.56
2022-08-30T14:01:31.025Z,23.58
2022-08-30T14:04:23.092Z,23.39
2022-08-30T14:09:47.323Z,23.53
2022-08-30T14:12:52.495Z,23.53
2022-08-30T14:15:12.709Z,23.58
2022-08-30T14:17:45.803Z,23.63
2022-08-30T14:20:18.739Z,23.60
2022-08-30T14:22:51.148Z,23.62
2022-08-30T14:25:23.676Z,23.67
2022-08-30T14:27:55.829Z,23.65
2022-08-30T14:30:28.762Z,23.67
2022-08-30T14:33:01.081Z,23.70
2022-08-30T14:35:33.703Z,23.71
2022-08-30T14:38:06.392Z,23.76
2022-08-30T14:40:43.325Z,23.80
2022-08-30T14:43:15.873Z,23.84
2022-08-30T14:45:48.456Z,23.88
2022-08-30T14:48:20.811Z,23.94
2022-08-30T14:50:53.630Z,24.03
2022-08-30T14:53:26.612Z,24.04
2022-08-30T14:55:59.006Z,24.11
2022-08-30T14:58:31.628Z,24.29
2022-08-30T15:01:03.874Z,24.45
2022-08-30T15:03:36.027Z,24.55
2022-08-30T15:06:09.603Z,24.54
2022-08-30T15:08:41.366Z,24.55
2022-08-30T15:11:16.144Z,24.59
2022-08-30T15:13:49.307Z,24.54
2022-08-30T15:16:27.397Z,24.58
2022-08-30T15:19:00.631Z,24.59
2022-08-30T15:21:36.149Z,24.47
2022-08-30T15:24:12.130Z,24.54
2022-08-30T15:26:44.814Z,24.46
2022-08-30T15:29:20.582Z,24.51
2022-08-30T15:31:53.695Z,24.48
2022-08-30T15:34:28.285Z,24.41
2022-08-30T15:37:00.802Z,24.33
2022-08-30T15:39:33.543Z,24.23
2022-08-30T15:42:06.277Z,24.27
2022-08-30T15:44:38.343Z,24.22
2022-08-30T15:47:10.897Z,24.17
2022-08-30T15:49:42.921Z,24.12
2022-08-30T15:52:15.206Z,24.03
2022-08-30T15:54:48.512Z,24.01
2022-08-30T15:57:21.005Z,23.96
2022-08-30T15:59:54.556Z,23.92
2022-08-30T16:02:27.645Z,23.85
2022-08-30T16:05:00.467Z,23.82
2022-08-30T16:07:34.503Z,23.80
2022-08-30T16:10:11.133Z,23.76
2022-08-30T16:12:44.682Z,23.70
2022-08-30T16:15:16.960Z,23.67
2022-08-30T16:17:49.356Z,23.61
2022-08-30T16:20:22.221Z,23.60
2022-08-30T16:22:54.823Z,23.57
2022-08-30T16:25:40.815Z,23.51
2022-08-30T16:28:13.660Z,23.40
2022-08-30T16:30:45.823Z,23.40
2022-08-30T16:33:18.733Z,23.34
2022-08-30T16:35:54.328Z,23.32
2022-08-30T16:38:27.480Z,23.30
2022-08-30T16:41:00.059Z,23.28
2022-08-30T16:43:32.256Z,23.27
2022-08-30T16:46:05.835Z,23.17
2022-08-30T16:48:41.158Z,23.22
2022-08-30T16:51:17.921Z,23.21
2022-08-30T16:53:50.978Z,23.18
2022-08-30T16:56:26.821Z,23.16
2022-08-30T16:59:03.011Z,23.13
2022-08-30T17:01:38.867Z,23.09
2022-08-30T17:04:12.989Z,23.07
2022-08-30T17:06:51.294Z,23.06
2022-08-30T17:09:24.272Z,23.05
2022-08-30T17:11:57.937Z,23.03
2022-08-30T17:14:30.798Z,23.00
2022-08-30T17:17:03.409Z,22.96
2022-08-30T17:19:42.979Z,22.87
2022-08-30T17:22:16.054Z,22.76
2022-08-30T17:24:48.587Z,22.73
2022-08-30T17:27:21.502Z,22.69
2022-08-30T17:29:54.159Z,22.60
2022-08-30T17:32:26.298Z,22.53
2022-08-30T17:34:58.705Z,22.45
2022-08-30T17:37:31.881Z,22.37
2022-08-30T17:40:07.038Z,22.36
2022-08-30T17:42:48.304Z,22.31
2022-08-30T17:45:23.109Z,22.28
2022-08-30T17:47:55.345Z,22.24
2022-08-30T17:50:28.037Z,22.20
2022-08-30T17:53:00.402Z,22.17
2022-08-30T17:55:33.889Z,22.17
2022-08-30T17:58:07.341Z,21.99
2022-08-30T18:00:41.427Z,22.13
2022-08-30T18:03:14.200Z,22.10
2022-08-30T18:05:47.817Z,22.09
2022-08-30T18:08:20.000Z,22.07
2022-08-30T18:10:52.834Z,22.12
2022-08-30T18:13:25.052Z,22.07
2022-08-30T18:15:58.488Z,22.05
2022-08-30T18:18:32.149Z,22.04
2022-08-30T18:21:04.610Z,21.97
2022-08-30T18:23:36.964Z,21.92
2022-08-30T18:26:09.713Z,21.90
2022-08-30T18:28:42.555Z,21.86
2022-08-30T18:31:14.753Z,21.85
2022-08-30T18:33:48.157Z,21.82
2022-08-30T18:36:20.988Z,21.82
2022-08-30T18:38:54.441Z,21.81
2022-08-30T18:41:27.556Z,21.84
2022-08-30T18:44:23.809Z,21.83
2022-08-30T18:46:56.121Z,21.78
2022-08-30T18:49:32.490Z,21.79
2022-08-30T18:52:07.586Z,21.80
2022-08-30T18:54:44.179Z,21.79
2022-08-30T18:57:19.282Z,21.70
2022-08-30T18:59:52.019Z,21.78
2022-08-30T19:02:27.770Z,21.71
2022-08-30T19:05:00.066Z,21.72
2022-08-30T19:07:37.452Z,21.71
2022-08-30T19:10:12.357Z,21.70
2022-08-30T19:12:45.101Z,21.63
2022-08-30T19:15:18.271Z,21.67
2022-08-30T19:17:50.786Z,21.64
2022-08-30T19:20:24.878Z,21.64
2022-08-30T19:23:09.951Z,21.55
2022-08-30T19:25:44.844Z,21.59
2022-08-30T19:28:18.215Z,21.56
2022-08-30T19:30:50.861Z,21.53
2022-08-30T19:33:23.767Z,21.53
2022-08-30T19:35:56.951Z,21.52
2022-08-30T19:38:29.494Z,21.51
2022-08-30T19:41:02.887Z,21.50
2022-08-30T19:43:35.267Z,21.49
2022-08-30T19:46:08.412Z,21.48
2022-08-30T19:48:43.152Z,21.47
2022-08-30T19:51:16.401Z,21.47
2022-08-30T19:53:49.105Z,21.46
2022-08-30T19:56:23.555Z,21.44
2022-08-30T19:58:55.996Z,21.41
2022-08-30T20:01:33.339Z,21.39
2022-08-30T20:04:06.732Z,21.36
2022-08-30T20:06:38.890Z,21.34
2022-08-30T20:09:12.565Z,21.32
2022-08-30T20:11:45.015Z,21.16
2022-08-30T20:14:21.273Z,21.24
2022-08-30T20:16:53.528Z,21.23
2022-08-30T20:19:27.514Z,21.20
2022-08-30T20:22:07.211Z,21.15
2022-08-30T20:24:43.871Z,21.18
2022-08-30T20:27:16.837Z,21.16
2022-08-30T20:29:49.455Z,21.14
2022-08-30T20:32:23.636Z,21.13
2022-08-30T20:34:55.866Z,20.97
2022-08-30T20:37:29.887Z,21.04
2022-08-30T20:40:03.514Z,21.04
2022-08-30T20:42:35.762Z,21.01
2022-08-30T20:45:09.729Z,21.02
2022-08-30T20:47:41.891Z,21.01
2022-08-30T20:50:18.498Z,21.00
2022-08-30T20:52:50.579Z,21.03
2022-08-30T20:55:22.818Z,20.98
2022-08-30T20:57:55.045Z,20.96
2022-08-30T21:00:28.286Z,20.97
2022-08-30T21:03:00.858Z,20.96
2022-08-30T21:05:33.629Z,20.98
2022-08-30T21:08:10.064Z,21.01
2022-08-30T21:10:43.155Z,20.97
2022-08-30T21:13:15.261Z,20.97
2022-08-30T21:15:47.694Z,20.97
2022-08-30T21:18:20.015Z,20.92
2022-08-30T21:20:52.321Z,20.82
2022-08-30T21:23:25.123Z,20.92
2022-08-30T21:25:57.703Z,20.80
2022-08-30T21:28:29.731Z,20.82
2022-08-30T21:31:08.648Z,20.89
2022-08-30T21:33:41.889Z,20.89
2022-08-30T21:36:31.927Z,20.86
2022-08-30T21:39:04.547Z,20.86
2022-08-30T21:41:38.979Z,20.83
2022-08-30T21:44:16.097Z,20.79
2022-08-30T21:46:49.546Z,20.77
2022-08-30T21:49:24.788Z,20.70
2022-08-30T21:51:57.011Z,20.80
2022-08-30T21:54:31.486Z,20.79
2022-08-30T21:57:06.703Z,20.74
2022-08-30T21:59:38.996Z,20.73
2022-08-30T22:02:12.326Z,20.72
2022-08-30T22:04:44.982Z,20.68
2022-08-30T22:07:17.951Z,20.66
2022-08-30T22:09:50.235Z,20.63
2022-08-30T22:12:22.324Z,20.50
2022-08-30T22:14:58.035Z,20.55
2022-08-30T22:17:30.686Z,20.54
2022-08-30T22:20:03.840Z,20.54
2022-08-30T22:22:36.018Z,20.52
2022-08-30T22:25:09.870Z,20.48
2022-08-30T22:27:42.287Z,20.46
2022-08-30T22:30:16.158Z,20.44
2022-08-30T22:32:49.232Z,20.31
2022-08-30T22:35:21.625Z,20.37
2022-08-30T22:37:53.866Z,20.37
2022-08-30T22:40:26.386Z,20.36
2022-08-30T22:42:58.456Z,20.35
2022-08-30T22:45:31.189Z,20.17
2022-08-30T22:48:03.631Z,20.33
2022-08-30T22:50:36.085Z,20.32
2022-08-30T22:53:08.691Z,20.29
2022-08-30T22:55:43.454Z,20.27
2022-08-30T22:58:18.977Z,20.23
2022-08-30T23:00:54.952Z,20.20
2022-08-30T23:03:28.030Z,20.17
2022-08-30T23:06:00.382Z,20.17
2022-08-30T23:08:32.385Z,20.16
2022-08-30T23:11:04.471Z,20.16
2022-08-30T23:13:36.655Z,20.15
2022-08-30T23:16:10.148Z,20.16
2022-08-30T23:18:44.044Z,20.14
2022-08-30T23:21:19.263Z,20.11
2022-08-30T23:24:10.475Z,20.12
2022-08-30T23:27:01.232Z,20.11
2022-08-30T23:29:54.448Z,20.09
2022-08-30T23:32:44.429Z,20.12
2022-08-30T23:35:34.211Z,20.05
2022-08-30T23:38:25.337Z,20.15
2022-08-30T23:41:14.851Z,20.15
2022-08-30T23:44:04.672Z,20.12
2022-08-30T23:46:54.287Z,20.08
2022-08-30T23:49:44.045Z,20.05
2022-08-30T23:52:33.504Z,19.99
2022-08-30T23:55:24.004Z,19.95
2022-08-30T23:58:13.859Z,19.91
